Sao Nicolau, Brazil
Current Conditions -  °F | °C
As of 1:00 PM on Tuesday 21 Oct 2014 (Local Time) from SARP Reporting Station
Clear Clear  
Wind Chill: 81°   Ceiling: Unl
Heat Index: 81°   Visibility: 6mi
Dew Point: 50°   Wind: 9mph
Humidity: 34%   Direction: 70°ENE
Pressure: 30.12"   Gusts: NA
Location:  28.18°S, 55.27°W
Report Text: SARP 211500Z 07008KT CAVOK 27/10 Q1020
Loading
Personal Weather Stations






























Interactive Weather Map
Tropical Storm Tracking
New forecast layout! Learn more

10-Day Weather Forecast

Advertisements
Track Severe Weather on mobile